Time;durP1;ratioP1;P1;durP2;ratioP2;P2;SDS_P1;SDS_P2;PMS_P1;PMS_P2;Temp;Humidity;BMP_temperature;BMP_pressure;BME280_temperature;BME280_humidity;BME280_pressure;Samples;Min_cycle;Max_cycle;Signal;HPM_P1;HPM_P2
2023/12/20 00:06:30;;;;;;;51.87;23.80;;;;;;;;;;5064613;28;20024;-80
2023/12/20 00:08:58;;;;;;;61.50;23.33;;;;;;;;;;5071208;28;20013;-80
2023/12/20 00:11:27;;;;;;;59.90;23.27;;;;;;;;;;5077692;28;20037;-79
2023/12/20 00:14:00;;;;;;;58.80;23.37;;;;;;;;;;5071153;28;20013;-80
2023/12/20 00:19:35;;;;;;;59.97;22.00;;;;;;;;;;5076800;28;20036;-80
2023/12/20 00:22:43;;;;;;;66.27;20.80;;;;;;;;;;5077247;28;20052;-80
2023/12/20 00:25:12;;;;;;;52.33;19.33;;;;;;;;;;5075676;28;20033;-80
2023/12/20 00:27:42;;;;;;;41.20;17.00;;;;;;;;;;5075673;28;20090;-80
2023/12/20 00:30:12;;;;;;;40.77;16.13;;;;;;;;;;5076182;28;20143;-79
2023/12/20 00:32:38;;;;;;;31.90;12.87;;;;;;;;;;5068751;28;20035;-80
2023/12/20 00:35:14;;;;;;;38.43;14.57;;;;;;;;;;5076131;28;21406;-80
2023/12/20 00:37:49;;;;;;;25.17;11.83;;;;;;;;;;5090571;28;20029;-81
2023/12/20 00:40:20;;;;;;;22.77;10.27;;;;;;;;;;5074655;28;20025;-80
2023/12/20 00:42:51;;;;;;;25.80;10.63;;;;;;;;;;5075910;28;20123;-81
2023/12/20 00:45:22;;;;;;;28.33;11.17;;;;;;;;;;5075749;28;20017;-80
2023/12/20 00:47:51;;;;;;;25.77;10.80;;;;;;;;;;5092617;28;20084;-81
2023/12/20 00:50:21;;;;;;;34.97;12.17;;;;;;;;;;5071030;28;20128;-81
2023/12/20 00:52:56;;;;;;;31.43;11.70;;;;;;;;;;5093790;28;20033;-80
2023/12/20 00:55:27;;;;;;;27.17;11.83;;;;;;;;;;5077970;28;20025;-81
2023/12/20 00:57:53;;;;;;;27.23;11.60;;;;;;;;;;5077562;28;20043;-81
2023/12/20 01:00:27;;;;;;;30.37;11.23;;;;;;;;;;5077176;28;20018;-81
2023/12/20 01:03:03;;;;;;;31.87;11.83;;;;;;;;;;5077509;28;20028;-81
2023/12/20 01:05:32;;;;;;;31.73;11.73;;;;;;;;;;5088680;28;20031;-80
2023/12/20 01:07:58;;;;;;;37.07;12.40;;;;;;;;;;5077121;28;20021;-80
2023/12/20 01:10:28;;;;;;;26.80;11.43;;;;;;;;;;5076572;28;20020;-81
2023/12/20 01:12:54;;;;;;;33.37;11.87;;;;;;;;;;5076553;28;20024;-81
2023/12/20 01:15:23;;;;;;;33.33;12.17;;;;;;;;;;5091395;22;20045;-80
2023/12/20 01:17:59;;;;;;;;;;;;;;;;;;;;;
2023/12/20 01:20:28;;;;;;;30.47;11.83;;;;;;;;;;5057975;28;20202;-81
2023/12/20 01:23:11;;;;;;;32.00;13.20;;;;;;;;;;5070828;28;20459;-81
2023/12/20 01:25:48;;;;;;;38.43;12.13;;;;;;;;;;5067339;28;20117;-81
2023/12/20 01:28:16;;;;;;;38.07;14.20;;;;;;;;;;5054961;28;20114;-81
2023/12/20 01:30:45;;;;;;;33.13;14.20;;;;;;;;;;5050844;28;20024;-81
2023/12/20 01:33:13;;;;;;;43.53;15.53;;;;;;;;;;5055860;28;20047;-82
2023/12/20 01:35:39;;;;;;;51.87;16.83;;;;;;;;;;5072546;28;20025;-81
2023/12/20 01:38:08;;;;;;;48.97;17.10;;;;;;;;;;5056671;28;20021;-81
2023/12/20 01:40:42;;;;;;;56.60;18.83;;;;;;;;;;5071850;28;20037;-81
2023/12/20 01:43:11;;;;;;;50.43;20.27;;;;;;;;;;5054841;28;20013;-81
2023/12/20 01:45:39;;;;;;;54.03;19.40;;;;;;;;;;5056314;28;20020;-81
2023/12/20 01:48:11;;;;;;;57.80;21.67;;;;;;;;;;5056047;28;20017;-81
2023/12/20 01:50:43;;;;;;;51.63;21.98;;;;;;;;;;5054897;28;20040;-81
2023/12/20 01:53:09;;;;;;;63.87;21.60;;;;;;;;;;5055330;28;20124;-81
2023/12/20 01:55:38;;;;;;;50.00;21.03;;;;;;;;;;5055555;28;20484;-81
2023/12/20 01:58:05;;;;;;;56.67;21.10;;;;;;;;;;5054024;28;20022;-81
2023/12/20 02:00:33;;;;;;;54.27;21.97;;;;;;;;;;5073633;28;20013;-81
2023/12/20 02:03:08;;;;;;;58.60;21.53;;;;;;;;;;5055602;28;20076;-81
2023/12/20 02:05:35;;;;;;;54.10;21.90;;;;;;;;;;5048800;28;20044;-81
2023/12/20 02:08:04;;;;;;;62.87;22.97;;;;;;;;;;5055984;28;20021;-81
2023/12/20 02:10:30;;;;;;;51.80;18.93;;;;;;;;;;5058318;28;20028;-81
2023/12/20 02:12:56;;;;;;;41.60;16.80;;;;;;;;;;5049658;28;20056;-81
2023/12/20 02:15:25;;;;;;;42.20;17.80;;;;;;;;;;5056824;28;20013;-81
2023/12/20 02:17:51;;;;;;;41.10;15.47;;;;;;;;;;5055256;28;20014;-81
2023/12/20 02:20:20;;;;;;;38.37;14.40;;;;;;;;;;5049346;28;20116;-81
2023/12/20 02:22:49;;;;;;;41.20;12.63;;;;;;;;;;5055504;28;20029;-81
2023/12/20 02:25:15;;;;;;;40.40;12.10;;;;;;;;;;5055053;28;20037;-81
2023/12/20 02:27:43;;;;;;;27.33;11.13;;;;;;;;;;5056005;28;20024;-81
2023/12/20 02:30:14;;;;;;;31.70;10.70;;;;;;;;;;5054846;28;20017;-81
2023/12/20 02:32:40;;;;;;;28.13;9.77;;;;;;;;;;5055137;28;20041;-81
2023/12/20 02:35:08;;;;;;;37.13;11.53;;;;;;;;;;5055096;28;20020;-81
2023/12/20 02:37:37;;;;;;;42.43;9.63;;;;;;;;;;5054852;28;20033;-81
2023/12/20 02:40:08;;;;;;;27.40;7.63;;;;;;;;;;5070463;28;20089;-81
2023/12/20 02:42:34;;;;;;;22.90;8.10;;;;;;;;;;5048710;28;20017;-81
2023/12/20 02:45:00;;;;;;;34.57;8.37;;;;;;;;;;5053873;28;20022;-80
2023/12/20 02:47:29;;;;;;;28.13;8.70;;;;;;;;;;5054137;28;20066;-81
2023/12/20 02:50:05;;;;;;;38.27;10.03;;;;;;;;;;5048968;28;20037;-81
2023/12/20 02:52:31;;;;;;;34.47;9.40;;;;;;;;;;5052696;28;20028;-80
2023/12/20 02:54:57;;;;;;;27.57;7.63;;;;;;;;;;5053020;28;20013;-81
2023/12/20 02:57:28;;;;;;;30.90;6.47;;;;;;;;;;5052282;28;20025;-81
2023/12/20 02:59:57;;;;;;;35.47;5.83;;;;;;;;;;5053569;28;20021;-80
2023/12/20 03:02:23;;;;;;;24.47;5.87;;;;;;;;;;5068827;28;20034;-81
2023/12/20 03:04:49;;;;;;;24.10;6.17;;;;;;;;;;5066921;28;20013;-81
2023/12/20 03:07:21;;;;;;;34.83;7.33;;;;;;;;;;5069788;28;20026;-81
2023/12/20 03:09:50;;;;;;;23.33;4.95;;;;;;;;;;5052784;28;20021;-80
2023/12/20 03:12:21;;;;;;;19.47;4.43;;;;;;;;;;5048934;28;20032;-81
2023/12/20 03:14:48;;;;;;;22.00;4.87;;;;;;;;;;5243904;23;20038;-81
2023/12/20 03:17:17;;;;;;;22.20;4.73;;;;;;;;;;5037618;28;20034;-81
2023/12/20 03:19:48;;;;;;;31.03;4.83;;;;;;;;;;5047697;28;20029;-80
2023/12/20 03:22:17;;;;;;;29.03;5.63;;;;;;;;;;5057869;28;20026;-80
2023/12/20 03:24:45;;;;;;;25.57;4.93;;;;;;;;;;5054581;28;20033;-80
2023/12/20 03:27:19;;;;;;;15.87;4.63;;;;;;;;;;5031419;28;20038;-80
2023/12/20 03:30:10;;;;;;;23.37;5.43;;;;;;;;;;5045833;28;20049;-81
2023/12/20 03:32:47;;;;;;;20.93;5.07;;;;;;;;;;5045925;28;20057;-80
2023/12/20 03:35:21;;;;;;;29.83;6.23;;;;;;;;;;5036358;28;20086;-81
2023/12/20 03:37:47;;;;;;;25.10;6.27;;;;;;;;;;5031020;28;20022;-80
2023/12/20 03:40:16;;;;;;;28.50;6.80;;;;;;;;;;5053407;28;20037;-81
2023/12/20 03:42:44;;;;;;;19.27;7.07;;;;;;;;;;5038141;28;20022;-81
2023/12/20 03:45:17;;;;;;;26.13;5.27;;;;;;;;;;5095051;22;20133;-79
2023/12/20 03:47:46;;;;;;;30.30;5.23;;;;;;;;;;5038369;28;20010;-81
2023/12/20 03:50:14;;;;;;;27.40;5.60;;;;;;;;;;5037206;28;20001;-81
2023/12/20 03:52:43;;;;;;;32.40;5.90;;;;;;;;;;5032570;28;20046;-81
2023/12/20 03:55:17;;;;;;;25.57;5.90;;;;;;;;;;5031823;28;20041;-81
2023/12/20 03:57:43;;;;;;;28.63;5.30;;;;;;;;;;5032030;28;20024;-81
2023/12/20 04:00:13;;;;;;;31.97;6.93;;;;;;;;;;5031331;28;20045;-81
2023/12/20 04:02:45;;;;;;;31.73;6.57;;;;;;;;;;5032919;28;20033;-81
2023/12/20 04:05:13;;;;;;;27.95;7.45;;;;;;;;;;5036865;28;20112;-81
2023/12/20 04:07:39;;;;;;;26.63;5.93;;;;;;;;;;5035168;28;20051;-81
2023/12/20 04:10:08;;;;;;;28.97;5.83;;;;;;;;;;5040242;28;20026;-81
2023/12/20 04:12:39;;;;;;;19.67;5.80;;;;;;;;;;5032070;28;20025;-81
2023/12/20 04:15:09;;;;;;;23.43;5.70;;;;;;;;;;5033550;28;20057;-80
2023/12/20 04:17:45;;;;;;;26.27;5.70;;;;;;;;;;5035956;28;20436;-80
2023/12/20 04:20:14;;;;;;;31.43;6.30;;;;;;;;;;5032422;28;20041;-81
2023/12/20 04:22:42;;;;;;;31.63;6.50;;;;;;;;;;5048985;28;20030;-80
2023/12/20 04:25:08;;;;;;;31.57;6.53;;;;;;;;;;5055597;28;20025;-81
2023/12/20 04:27:37;;;;;;;34.83;7.57;;;;;;;;;;5036698;28;20077;-80
2023/12/20 04:30:03;;;;;;;30.67;6.57;;;;;;;;;;5033183;28;20015;-81
2023/12/20 04:32:31;;;;;;;22.20;6.53;;;;;;;;;;5031826;28;20045;-80
2023/12/20 04:34:58;;;;;;;18.43;7.20;;;;;;;;;;5030885;28;20022;-80
2023/12/20 04:37:24;;;;;;;41.63;8.63;;;;;;;;;;5051664;28;20026;-81
2023/12/20 04:39:50;;;;;;;27.13;8.00;;;;;;;;;;5036236;28;20037;-81
2023/12/20 04:42:16;;;;;;;29.53;6.60;;;;;;;;;;5025307;28;20086;-81
2023/12/20 04:44:43;;;;;;;33.67;6.33;;;;;;;;;;5036015;28;20037;-80
2023/12/20 04:47:09;;;;;;;24.40;7.43;;;;;;;;;;5036795;28;20084;-80
2023/12/20 04:49:39;;;;;;;38.70;6.90;;;;;;;;;;5036383;28;20006;-81
2023/12/20 04:52:10;;;;;;;18.90;5.97;;;;;;;;;;5033615;28;20034;-81
2023/12/20 04:54:44;;;;;;;28.85;6.32;;;;;;;;;;5037283;28;20025;-81
2023/12/20 04:57:10;;;;;;;21.03;6.57;;;;;;;;;;5036429;28;20046;-80
2023/12/20 04:59:38;;;;;;;24.50;5.57;;;;;;;;;;5036772;28;20018;-81
2023/12/20 05:02:10;;;;;;;15.53;5.40;;;;;;;;;;5052191;28;20052;-81
2023/12/20 05:04:43;;;;;;;25.73;5.87;;;;;;;;;;5040409;28;20014;-80
2023/12/20 05:07:09;;;;;;;30.77;6.70;;;;;;;;;;5040327;28;20006;-80
2023/12/20 05:09:38;;;;;;;20.50;5.43;;;;;;;;;;5034088;28;20049;-81
2023/12/20 05:12:04;;;;;;;21.30;5.70;;;;;;;;;;5056756;28;20042;-80
2023/12/20 05:14:33;;;;;;;18.83;5.27;;;;;;;;;;5067375;28;20017;-81
2023/12/20 05:16:59;;;;;;;22.97;5.33;;;;;;;;;;5056599;28;20101;-81
2023/12/20 05:19:31;;;;;;;20.53;6.07;;;;;;;;;;5040249;28;20022;-80
2023/12/20 05:21:59;;;;;;;21.90;7.00;;;;;;;;;;5040064;28;20014;-81
2023/12/20 05:24:27;;;;;;;24.60;6.43;;;;;;;;;;5040032;28;20284;-80
2023/12/20 05:26:53;;;;;;;22.20;5.27;;;;;;;;;;5044561;28;20010;-81
2023/12/20 05:29:19;;;;;;;26.47;6.23;;;;;;;;;;5051244;28;20029;-81
2023/12/20 05:31:48;;;;;;;21.00;5.23;;;;;;;;;;5034958;28;20101;-80
2023/12/20 05:34:16;;;;;;;32.77;7.73;;;;;;;;;;5039695;28;20029;-81
2023/12/20 05:36:47;;;;;;;26.47;5.53;;;;;;;;;;5039873;28;20010;-81
2023/12/20 05:39:15;;;;;;;24.60;6.50;;;;;;;;;;5040118;28;20010;-81
2023/12/20 05:41:45;;;;;;;23.80;6.47;;;;;;;;;;5040232;28;20064;-81
2023/12/20 05:44:11;;;;;;;18.03;5.13;;;;;;;;;;5039335;28;20014;-81
2023/12/20 05:46:38;;;;;;;26.73;5.00;;;;;;;;;;5039511;28;20022;-80
2023/12/20 05:49:08;;;;;;;21.93;5.70;;;;;;;;;;5056192;28;20037;-80
2023/12/20 05:51:37;;;;;;;20.23;5.53;;;;;;;;;;5042080;28;20021;-80
2023/12/20 05:54:05;;;;;;;18.63;4.50;;;;;;;;;;5044937;28;20034;-80
2023/12/20 05:56:31;;;;;;;20.80;4.60;;;;;;;;;;5041631;28;20022;-80
2023/12/20 05:58:58;;;;;;;21.93;5.13;;;;;;;;;;5047504;28;20090;-81
2023/12/20 06:01:31;;;;;;;23.63;4.67;;;;;;;;;;5038893;28;20024;-80
2023/12/20 06:04:03;;;;;;;21.23;4.67;;;;;;;;;;5047010;28;20045;-80
2023/12/20 06:06:30;;;;;;;19.05;4.32;;;;;;;;;;5053282;28;20048;-81
2023/12/20 06:09:03;;;;;;;20.67;4.17;;;;;;;;;;5048202;28;20073;-80
2023/12/20 06:11:32;;;;;;;25.50;7.17;;;;;;;;;;5037484;28;20089;-81
2023/12/20 06:14:00;;;;;;;24.23;5.47;;;;;;;;;;5036230;28;20025;-81
2023/12/20 06:16:26;;;;;;;19.23;5.03;;;;;;;;;;5036352;28;20021;-80
2023/12/20 06:18:52;;;;;;;22.07;6.23;;;;;;;;;;5035815;28;20030;-80
2023/12/20 06:21:25;;;;;;;26.37;5.23;;;;;;;;;;5032993;28;20018;-80
2023/12/20 06:23:51;;;;;;;24.13;5.27;;;;;;;;;;5033472;28;20013;-81
2023/12/20 06:26:27;;;;;;;22.93;4.30;;;;;;;;;;5033203;28;20046;-80
2023/12/20 06:28:55;;;;;;;21.03;5.13;;;;;;;;;;5039182;28;20014;-81
2023/12/20 06:31:21;;;;;;;17.63;4.60;;;;;;;;;;5037471;28;20095;-81
2023/12/20 06:33:49;;;;;;;16.87;4.07;;;;;;;;;;5033487;28;20057;-80
2023/12/20 06:36:18;;;;;;;19.80;4.47;;;;;;;;;;5038787;28;20132;-81
2023/12/20 06:38:52;;;;;;;20.23;4.40;;;;;;;;;;5038603;28;20014;-81
2023/12/20 06:41:19;;;;;;;18.20;4.40;;;;;;;;;;5039474;28;20162;-80
2023/12/20 06:43:49;;;;;;;22.30;4.53;;;;;;;;;;5033354;28;20060;-80
2023/12/20 06:46:16;;;;;;;20.70;4.73;;;;;;;;;;5034173;28;20026;-80
2023/12/20 06:49:02;;;;;;;25.80;5.03;;;;;;;;;;5034052;28;20082;-80
2023/12/20 06:51:36;;;;;;;25.20;4.27;;;;;;;;;;5032811;28;20029;-80
2023/12/20 06:54:05;;;;;;;16.27;4.27;;;;;;;;;;5034067;28;20028;-81
2023/12/20 06:56:31;;;;;;;17.10;4.43;;;;;;;;;;5033608;28;20060;-81
2023/12/20 06:58:57;;;;;;;17.87;4.10;;;;;;;;;;5033792;28;20033;-81
2023/12/20 07:01:28;;;;;;;25.20;4.17;;;;;;;;;;5033908;28;20010;-80
2023/12/20 07:03:54;;;;;;;27.47;4.40;;;;;;;;;;5034091;28;20018;-80
2023/12/20 07:06:25;;;;;;;24.40;5.27;;;;;;;;;;5033765;28;20026;-81
2023/12/20 07:08:56;;;;;;;20.23;4.10;;;;;;;;;;5033417;28;20022;-80
2023/12/20 07:11:24;;;;;;;18.77;3.87;;;;;;;;;;5050344;28;20262;-80
2023/12/20 07:14:02;;;;;;;16.17;3.90;;;;;;;;;;5145975;22;19917;-80
2023/12/20 07:16:48;;;;;;;13.43;3.70;;;;;;;;;;5144675;22;20042;-80
2023/12/20 07:19:25;;;;;;;17.63;4.87;;;;;;;;;;5074699;28;20001;-80
2023/12/20 07:24:27;;;;;;;25.97;3.70;;;;;;;;;;5276197;22;20029;-80
2023/12/20 07:26:53;;;;;;;29.17;5.53;;;;;;;;;;5050663;28;20051;-79
2023/12/20 07:29:24;;;;;;;18.93;4.67;;;;;;;;;;5068102;28;20083;-81
2023/12/20 07:31:51;;;;;;;18.57;4.93;;;;;;;;;;5052205;28;20056;-81
2023/12/20 07:34:17;;;;;;;17.17;4.40;;;;;;;;;;5053187;28;20018;-80
2023/12/20 07:36:44;;;;;;;15.37;5.43;;;;;;;;;;5052647;28;20088;-81
2023/12/20 07:39:12;;;;;;;20.33;4.53;;;;;;;;;;5053126;28;20045;-80
2023/12/20 07:41:38;;;;;;;24.03;4.60;;;;;;;;;;5053407;28;20080;-81
2023/12/20 07:44:05;;;;;;;19.80;3.83;;;;;;;;;;5136965;23;20045;-80
2023/12/20 07:46:31;;;;;;;16.17;4.60;;;;;;;;;;5072851;28;20056;-80
2023/12/20 07:49:00;;;;;;;26.33;6.17;;;;;;;;;;5072949;28;20017;-80
2023/12/20 07:51:26;;;;;;;29.00;6.07;;;;;;;;;;5066909;28;20101;-80
2023/12/20 07:53:52;;;;;;;23.60;4.83;;;;;;;;;;5072439;28;20052;-80
2023/12/20 07:56:19;;;;;;;16.17;4.20;;;;;;;;;;5072415;28;20028;-79
2023/12/20 07:58:45;;;;;;;18.57;5.43;;;;;;;;;;5088372;28;20029;-81
2023/12/20 08:01:19;;;;;;;17.63;4.60;;;;;;;;;;5089700;28;20035;-80
2023/12/20 08:03:48;;;;;;;19.43;4.53;;;;;;;;;;5081644;28;20009;-82
2023/12/20 08:06:17;;;;;;;23.23;4.83;;;;;;;;;;5072418;28;20021;-80
2023/12/20 08:08:45;;;;;;;19.70;5.57;;;;;;;;;;5066244;28;20025;-81
2023/12/20 08:11:11;;;;;;;14.57;4.43;;;;;;;;;;5070286;28;20068;-80
2023/12/20 08:13:37;;;;;;;22.07;5.50;;;;;;;;;;5072244;28;20033;-80
2023/12/20 08:16:04;;;;;;;17.43;4.33;;;;;;;;;;5073107;28;20044;-81
2023/12/20 08:18:40;;;;;;;25.67;6.03;;;;;;;;;;5072277;28;20017;-80
2023/12/20 08:21:11;;;;;;;25.33;5.17;;;;;;;;;;5084793;28;20047;-80
2023/12/20 08:23:37;;;;;;;23.20;5.13;;;;;;;;;;5071942;28;20013;-80
2023/12/20 08:26:15;;;;;;;19.80;4.37;;;;;;;;;;5073920;28;20031;-80
2023/12/20 08:28:46;;;;;;;18.23;4.97;;;;;;;;;;5087402;28;20025;-79
2023/12/20 08:31:21;;;;;;;22.00;5.05;;;;;;;;;;5071856;28;20017;-80
2023/12/20 08:33:48;;;;;;;17.27;4.23;;;;;;;;;;5089061;28;20033;-80
2023/12/20 08:36:14;;;;;;;17.83;3.60;;;;;;;;;;5088479;28;20013;-81
2023/12/20 08:38:47;;;;;;;18.20;4.57;;;;;;;;;;5074955;28;20032;-80
2023/12/20 08:41:17;;;;;;;24.13;5.50;;;;;;;;;;5075110;28;20016;-78
2023/12/20 08:43:46;;;;;;;19.20;4.40;;;;;;;;;;5073098;28;20025;-79
2023/12/20 08:46:12;;;;;;;12.93;3.93;;;;;;;;;;5068266;28;20221;-78
2023/12/20 08:48:38;;;;;;;18.67;4.67;;;;;;;;;;5073405;28;20054;-80
2023/12/20 08:51:06;;;;;;;17.13;4.50;;;;;;;;;;5090314;28;20268;-80
2023/12/20 08:53:35;;;;;;;22.80;4.17;;;;;;;;;;5073832;28;20048;-80
2023/12/20 08:56:09;;;;;;;28.80;6.07;;;;;;;;;;5073511;28;20029;-80
2023/12/20 08:58:40;;;;;;;14.00;4.20;;;;;;;;;;5074258;28;20017;-80
2023/12/20 09:01:07;;;;;;;28.07;6.37;;;;;;;;;;5075666;28;20033;-80
2023/12/20 09:03:35;;;;;;;14.60;4.40;;;;;;;;;;5074868;28;20021;-80
2023/12/20 09:06:07;;;;;;;20.47;5.00;;;;;;;;;;5070174;28;20014;-80
2023/12/20 09:08:35;;;;;;;17.93;4.00;;;;;;;;;;5068511;28;20021;-80
2023/12/20 09:11:04;;;;;;;13.40;3.63;;;;;;;;;;5072124;28;20033;-80
2023/12/20 09:13:39;;;;;;;17.70;4.27;;;;;;;;;;5071903;28;20048;-81
2023/12/20 09:16:05;;;;;;;21.47;4.20;;;;;;;;;;5074609;28;20096;-80
2023/12/20 09:18:33;;;;;;;12.17;4.03;;;;;;;;;;5075237;28;20069;-79
2023/12/20 09:20:59;;;;;;;42.33;12.73;;;;;;;;;;5074465;28;20040;-81
2023/12/20 09:23:27;;;;;;;22.27;4.77;;;;;;;;;;5073545;28;20009;-80
2023/12/20 09:25:53;;;;;;;23.03;8.17;;;;;;;;;;5073424;28;20048;-80
2023/12/20 09:28:22;;;;;;;24.63;4.90;;;;;;;;;;5072303;28;20013;-80
2023/12/20 09:30:48;;;;;;;18.80;3.90;;;;;;;;;;5075736;28;20031;-79
2023/12/20 09:33:14;;;;;;;13.83;3.70;;;;;;;;;;5074859;28;20032;-80
2023/12/20 09:35:40;;;;;;;15.03;5.17;;;;;;;;;;5073957;28;20044;-79
2023/12/20 09:38:06;;;;;;;14.47;4.73;;;;;;;;;;5073953;28;20029;-79
2023/12/20 09:40:34;;;;;;;11.67;3.73;;;;;;;;;;5074685;28;20009;-80
2023/12/20 09:43:06;;;;;;;11.33;3.90;;;;;;;;;;5073371;28;20013;-79
2023/12/20 09:45:35;;;;;;;26.77;4.83;;;;;;;;;;5068377;28;20021;-80
2023/12/20 09:48:04;;;;;;;18.80;5.43;;;;;;;;;;5073565;28;20081;-79
2023/12/20 09:50:32;;;;;;;22.17;8.20;;;;;;;;;;5074205;28;20036;-81
2023/12/20 09:52:59;;;;;;;14.73;6.57;;;;;;;;;;5074857;28;20021;-80
2023/12/20 09:55:25;;;;;;;20.03;4.80;;;;;;;;;;5074118;28;20168;-79
2023/12/20 09:57:51;;;;;;;20.17;4.13;;;;;;;;;;5075149;28;20021;-79
2023/12/20 10:00:18;;;;;;;19.00;4.10;;;;;;;;;;5073254;28;20039;-79
2023/12/20 10:03:02;;;;;;;15.40;3.80;;;;;;;;;;5072984;28;20093;-80
2023/12/20 10:05:28;;;;;;;15.80;3.10;;;;;;;;;;5073936;28;20025;-80
2023/12/20 10:07:57;;;;;;;15.93;3.50;;;;;;;;;;5069030;28;20028;-81
2023/12/20 10:10:26;;;;;;;18.17;4.27;;;;;;;;;;5073410;28;20025;-80
2023/12/20 10:13:05;;;;;;;17.47;3.80;;;;;;;;;;5073368;28;20033;-79
2023/12/20 10:15:31;;;;;;;11.03;3.60;;;;;;;;;;5088293;28;20020;-79
2023/12/20 10:18:04;;;;;;;20.97;4.73;;;;;;;;;;5073598;28;20025;-79
2023/12/20 10:20:31;;;;;;;25.03;7.50;;;;;;;;;;5067813;28;20085;-80
2023/12/20 10:22:58;;;;;;;18.57;8.53;;;;;;;;;;5074378;28;20187;-79
2023/12/20 10:25:24;;;;;;;21.60;5.07;;;;;;;;;;5074708;28;20017;-80
2023/12/20 10:27:51;;;;;;;17.30;4.70;;;;;;;;;;5071795;28;20080;-80
2023/12/20 10:30:17;;;;;;;20.27;4.40;;;;;;;;;;5073102;28;20088;-80
2023/12/20 10:32:52;;;;;;;16.60;4.03;;;;;;;;;;5088861;28;20033;-79
2023/12/20 10:35:28;;;;;;;;;;;;;;;;;;;;;
2023/12/20 10:37:56;;;;;;;16.27;3.30;;;;;;;;;;5074400;28;20036;-80
2023/12/20 10:40:33;;;;;;;14.30;3.30;;;;;;;;;;5070109;28;20021;-79
2023/12/20 10:43:01;;;;;;;16.43;3.30;;;;;;;;;;5076752;28;20077;-79
2023/12/20 10:45:27;;;;;;;14.73;3.67;;;;;;;;;;5079040;28;20013;-80
2023/12/20 10:47:59;;;;;;;24.80;5.77;;;;;;;;;;5078943;28;20081;-81
2023/12/20 10:50:25;;;;;;;23.30;3.20;;;;;;;;;;5082360;28;20024;-79
2023/12/20 10:52:55;;;;;;;16.47;3.50;;;;;;;;;;5072386;28;20088;-79
2023/12/20 10:55:43;;;;;;;24.70;10.93;;;;;;;;;;5070775;28;20010;-79
2023/12/20 10:58:13;;;;;;;28.57;15.67;;;;;;;;;;5092146;28;20024;-79
2023/12/20 11:00:52;;;;;;;33.03;15.67;;;;;;;;;;5078250;28;20009;-79
2023/12/20 11:03:19;;;;;;;13.67;5.63;;;;;;;;;;5073697;28;20020;-79
2023/12/20 11:05:50;;;;;;;15.73;3.73;;;;;;;;;;5067407;28;20043;-80
2023/12/20 11:08:34;;;;;;;15.53;5.30;;;;;;;;;;5077636;28;20021;-80
2023/12/20 11:11:06;;;;;;;12.90;3.33;;;;;;;;;;5078523;28;20025;-79
2023/12/20 11:14:08;;;;;;;12.40;3.17;;;;;;;;;;5072488;28;20048;-79
2023/12/20 11:16:37;;;;;;;14.60;2.63;;;;;;;;;;5027021;28;20022;-79
2023/12/20 11:19:08;;;;;;;9.37;2.47;;;;;;;;;;5049215;28;20022;-79
2023/12/20 11:21:40;;;;;;;15.50;3.17;;;;;;;;;;5078373;28;20029;-79
2023/12/20 11:24:06;;;;;;;15.57;2.80;;;;;;;;;;5078452;28;20029;-79
2023/12/20 11:26:32;;;;;;;15.70;2.77;;;;;;;;;;5069980;28;20009;-78
2023/12/20 11:29:27;;;;;;;14.80;2.70;;;;;;;;;;5076055;28;20013;-79
2023/12/20 11:31:57;;;;;;;7.43;1.93;;;;;;;;;;5070740;28;20053;-79
2023/12/20 11:34:27;;;;;;;13.57;2.63;;;;;;;;;;5062125;28;20029;-80
2023/12/20 11:37:15;;;;;;;;;;;;;;;;;;;;;
2023/12/20 11:39:43;;;;;;;14.87;2.73;;;;;;;;;;5078815;28;20009;-79
2023/12/20 11:42:12;;;;;;;20.97;3.17;;;;;;;;;;5078038;28;20017;-79
2023/12/20 11:44:43;;;;;;;10.67;2.47;;;;;;;;;;5192674;22;20037;-81
2023/12/20 11:47:15;;;;;;;14.90;4.53;;;;;;;;;;5065960;28;20021;-80
2023/12/20 11:49:41;;;;;;;18.20;2.87;;;;;;;;;;5057972;28;20090;-78
2023/12/20 11:52:07;;;;;;;16.67;2.77;;;;;;;;;;5057826;28;20036;-80
2023/12/20 11:54:33;;;;;;;8.80;2.20;;;;;;;;;;5051986;28;20009;-81
2023/12/20 11:57:08;;;;;;;11.80;3.83;;;;;;;;;;5047452;28;20010;-79
2023/12/20 11:59:37;;;;;;;17.60;3.27;;;;;;;;;;5046735;28;20018;-80
2023/12/20 12:02:03;;;;;;;11.10;2.93;;;;;;;;;;5070802;28;20045;-82
2023/12/20 12:04:31;;;;;;;17.00;3.20;;;;;;;;;;5052040;28;20010;-80
2023/12/20 12:07:05;;;;;;;11.77;3.67;;;;;;;;;;5057716;28;20080;-79
2023/12/20 12:09:31;;;;;;;14.63;3.00;;;;;;;;;;5053248;28;20049;-79
2023/12/20 12:11:57;;;;;;;13.43;3.80;;;;;;;;;;5055844;28;20037;-79
2023/12/20 12:14:23;;;;;;;16.60;2.77;;;;;;;;;;5056438;28;20005;-79
2023/12/20 12:16:53;;;;;;;13.63;2.67;;;;;;;;;;5062089;28;20014;-79
2023/12/20 12:19:29;;;;;;;12.17;3.03;;;;;;;;;;5058466;28;20033;-80
2023/12/20 12:22:16;;;;;;;15.70;3.23;;;;;;;;;;5053543;28;20021;-79
2023/12/20 12:24:49;;;;;;;16.30;2.60;;;;;;;;;;5055529;28;20013;-80
2023/12/20 12:27:17;;;;;;;;;;;;;;;;;;5057127;28;20009;-80
2023/12/20 12:30:01;;;;;;;13.13;4.30;;;;;;;;;;5056907;28;19901;-80
2023/12/20 12:32:29;;;;;;;19.07;3.67;;;;;;;;;;5073370;28;20034;-79
2023/12/20 12:34:56;;;;;;;17.40;3.10;;;;;;;;;;5051120;28;20047;-79
2023/12/20 12:37:24;;;;;;;16.53;3.37;;;;;;;;;;5055843;28;20064;-80
2023/12/20 12:39:50;;;;;;;16.93;3.23;;;;;;;;;;5055312;28;20020;-80
2023/12/20 12:42:21;;;;;;;18.73;3.60;;;;;;;;;;5058414;28;20018;-79
2023/12/20 12:44:47;;;;;;;17.50;3.50;;;;;;;;;;5057002;28;20024;-80
2023/12/20 12:47:16;;;;;;;14.80;3.73;;;;;;;;;;5057307;28;20036;-80
2023/12/20 12:49:42;;;;;;;14.10;2.37;;;;;;;;;;5073272;28;20025;-80
2023/12/20 12:52:08;;;;;;;11.07;3.90;;;;;;;;;;5056729;28;20037;-80
2023/12/20 12:54:34;;;;;;;10.60;3.20;;;;;;;;;;5056499;28;20040;-80
2023/12/20 12:57:17;;;;;;;15.17;5.67;;;;;;;;;;5057030;28;20017;-80
2023/12/20 12:59:45;;;;;;;22.47;3.70;;;;;;;;;;5056061;28;20022;-78
2023/12/20 13:02:11;;;;;;;26.33;3.90;;;;;;;;;;5056557;28;20022;-79
2023/12/20 13:04:40;;;;;;;11.97;3.57;;;;;;;;;;5056473;28;20113;-80
2023/12/20 13:07:10;;;;;;;16.57;4.17;;;;;;;;;;5057283;28;20021;-79
2023/12/20 13:09:36;;;;;;;16.43;4.23;;;;;;;;;;5056458;28;20102;-80
2023/12/20 13:12:06;;;;;;;11.93;4.03;;;;;;;;;;5056153;28;20037;-80
2023/12/20 13:14:51;;;;;;;16.83;3.87;;;;;;;;;;5127887;22;20096;-80
2023/12/20 13:17:22;;;;;;;15.17;3.07;;;;;;;;;;5076037;28;20041;-79
2023/12/20 13:19:56;;;;;;;15.30;4.00;;;;;;;;;;5075865;28;20017;-79
2023/12/20 13:22:22;;;;;;;18.77;4.57;;;;;;;;;;5075769;28;20024;-80
2023/12/20 13:24:48;;;;;;;12.97;3.20;;;;;;;;;;5076053;28;20021;-79
2023/12/20 13:27:14;;;;;;;16.20;3.33;;;;;;;;;;5070269;28;20017;-78
2023/12/20 13:29:40;;;;;;;25.57;4.43;;;;;;;;;;5075684;28;20024;-79
2023/12/20 13:32:06;;;;;;;18.63;4.77;;;;;;;;;;5075885;28;20063;-80
2023/12/20 13:34:32;;;;;;;14.57;3.83;;;;;;;;;;5075941;28;20041;-79
2023/12/20 13:37:06;;;;;;;14.90;3.57;;;;;;;;;;5075713;28;20027;-79
2023/12/20 13:39:32;;;;;;;13.67;3.67;;;;;;;;;;5075672;28;20017;-79
2023/12/20 13:41:58;;;;;;;18.30;3.40;;;;;;;;;;5075484;28;20025;-79
2023/12/20 13:44:27;;;;;;;13.47;3.47;;;;;;;;;;5075996;28;20032;-79
2023/12/20 13:46:53;;;;;;;13.33;3.37;;;;;;;;;;5075681;28;20093;-79
2023/12/20 13:49:19;;;;;;;13.53;3.63;;;;;;;;;;5075644;28;20021;-80
2023/12/20 13:51:47;;;;;;;10.93;3.00;;;;;;;;;;5086283;28;21403;-79
2023/12/20 13:54:29;;;;;;;11.00;2.90;;;;;;;;;;5075806;28;20028;-80
2023/12/20 13:56:58;;;;;;;17.27;3.33;;;;;;;;;;5075376;28;20029;-80
2023/12/20 13:59:27;;;;;;;17.57;2.73;;;;;;;;;;5091160;28;20024;-79
2023/12/20 14:01:53;;;;;;;16.50;3.33;;;;;;;;;;5068928;28;20047;-80
2023/12/20 14:04:22;;;;;;;18.13;3.50;;;;;;;;;;5075594;28;20028;-80
2023/12/20 14:06:48;;;;;;;17.00;3.33;;;;;;;;;;5074805;28;20044;-80
2023/12/20 14:09:17;;;;;;;15.73;2.77;;;;;;;;;;5073531;28;20017;-79
2023/12/20 14:11:46;;;;;;;11.70;3.57;;;;;;;;;;5069156;28;20025;-79
2023/12/20 14:14:14;;;;;;;17.20;3.83;;;;;;;;;;5074622;28;20039;-79
2023/12/20 14:16:42;;;;;;;12.17;2.87;;;;;;;;;;5074177;28;20040;-80
2023/12/20 14:19:10;;;;;;;12.13;3.37;;;;;;;;;;5073976;28;20009;-79
2023/12/20 14:21:45;;;;;;;13.23;3.33;;;;;;;;;;5073896;28;20032;-80
2023/12/20 14:24:14;;;;;;;12.60;3.30;;;;;;;;;;5075360;28;20046;-80
2023/12/20 14:26:40;;;;;;;8.97;3.17;;;;;;;;;;5087411;28;20009;-80
2023/12/20 14:29:07;;;;;;;17.73;3.60;;;;;;;;;;5073946;28;20036;-79
2023/12/20 14:31:33;;;;;;;11.57;2.57;;;;;;;;;;5074361;28;20037;-80
2023/12/20 14:34:01;;;;;;;14.73;2.87;;;;;;;;;;5074389;28;20036;-79
2023/12/20 14:36:27;;;;;;;11.40;3.23;;;;;;;;;;5073960;28;20021;-80
2023/12/20 14:38:57;;;;;;;14.57;3.20;;;;;;;;;;5074697;28;20025;-80
2023/12/20 14:41:30;;;;;;;16.27;3.33;;;;;;;;;;5074386;28;20044;-79
2023/12/20 14:43:57;;;;;;;8.47;2.83;;;;;;;;;;5141442;22;20024;-79
2023/12/20 14:46:23;;;;;;;9.63;3.67;;;;;;;;;;5073960;28;20076;-79
2023/12/20 14:48:49;;;;;;;12.27;3.30;;;;;;;;;;5088733;28;20021;-80
2023/12/20 14:51:15;;;;;;;20.10;3.90;;;;;;;;;;5157357;22;20025;-79
2023/12/20 14:53:42;;;;;;;9.10;2.67;;;;;;;;;;5074329;28;20033;-80
2023/12/20 14:56:13;;;;;;;12.70;3.00;;;;;;;;;;5075199;28;20025;-80